Time;durP1;ratioP1;P1;durP2;ratioP2;P2;SDS_P1;SDS_P2;PMS_P1;PMS_P2;Temp;Humidity;BMP_temperature;BMP_pressure;BME280_temperature;BME280_humidity;BME280_pressure;Samples;Min_cycle;Max_cycle;Signal;HPM_P1;HPM_P2
2022/09/30 00:00:39;;;;;;;22.73;15.80;;;;;;;;;;740204;187;919078;-67
2022/09/30 00:03:05;;;;;;;24.70;14.87;;;;;;;;;;747529;187;920532;-67
2022/09/30 00:05:31;;;;;;;25.63;15.00;;;;;;;;;;745304;186;918808;-70
2022/09/30 00:07:57;;;;;;;25.00;16.10;;;;;;;;;;742964;185;931363;-67
2022/09/30 00:10:23;;;;;;;24.90;16.33;;;;;;;;;;746873;187;914290;-67
2022/09/30 00:12:49;;;;;;;22.37;14.90;;;;;;;;;;739784;186;919914;-67
2022/09/30 00:15:15;;;;;;;26.20;16.03;;;;;;;;;;741742;187;921141;-68
2022/09/30 00:17:41;;;;;;;23.70;14.33;;;;;;;;;;744342;187;876129;-66
2022/09/30 00:20:07;;;;;;;20.17;14.20;;;;;;;;;;751956;187;818509;-66
2022/09/30 00:22:33;;;;;;;21.80;14.63;;;;;;;;;;746905;184;918784;-68
2022/09/30 00:24:59;;;;;;;23.55;16.85;;;;;;;;;;746741;187;816938;-67
2022/09/30 00:27:24;;;;;;;29.50;18.77;;;;;;;;;;748312;186;918641;-69
2022/09/30 00:29:50;;;;;;;24.67;17.57;;;;;;;;;;743135;187;918652;-67
2022/09/30 00:32:16;;;;;;;28.30;17.53;;;;;;;;;;741262;187;916514;-68
2022/09/30 00:34:43;;;;;;;26.80;18.57;;;;;;;;;;746809;187;919103;-67
2022/09/30 00:37:08;;;;;;;23.27;15.80;;;;;;;;;;742617;186;918574;-66
2022/09/30 00:39:36;;;;;;;25.63;17.83;;;;;;;;;;744249;184;914746;-69
2022/09/30 00:41:59;;;;;;;23.27;17.17;;;;;;;;;;743463;186;918691;-67
2022/09/30 00:44:31;;;;;;;32.83;19.80;;;;;;;;;;749221;185;919520;-66
2022/09/30 00:46:58;;;;;;;37.37;23.20;;;;;;;;;;743940;187;918475;-69
2022/09/30 00:49:23;;;;;;;36.03;23.97;;;;;;;;;;742705;187;926377;-69
2022/09/30 00:51:49;;;;;;;40.33;21.37;;;;;;;;;;748354;187;919009;-67
2022/09/30 00:54:16;;;;;;;31.90;20.40;;;;;;;;;;740639;186;927515;-67
2022/09/30 00:56:41;;;;;;;28.50;19.30;;;;;;;;;;739602;187;920084;-69
2022/09/30 00:59:09;;;;;;;31.98;19.73;;;;;;;;;;741962;185;917228;-68
2022/09/30 01:01:35;;;;;;;29.40;20.00;;;;;;;;;;747648;187;817732;-68
2022/09/30 01:04:03;;;;;;;29.92;19.80;;;;;;;;;;740222;187;918646;-69
2022/09/30 01:06:28;;;;;;;36.20;21.40;;;;;;;;;;742440;184;920532;-67
2022/09/30 01:08:57;;;;;;;36.40;24.47;;;;;;;;;;748060;187;816367;-68
2022/09/30 01:11:20;;;;;;;35.00;22.53;;;;;;;;;;744505;186;919572;-69
2022/09/30 01:13:46;;;;;;;33.90;22.07;;;;;;;;;;743323;186;921941;-68
2022/09/30 01:16:18;;;;;;;39.33;22.60;;;;;;;;;;746410;187;918973;-68
2022/09/30 01:18:46;;;;;;;31.93;21.53;;;;;;;;;;752715;187;919427;-69
2022/09/30 01:21:28;;;;;;;30.10;21.50;;;;;;;;;;741940;187;906812;-68
2022/09/30 01:24:01;;;;;;;36.50;24.07;;;;;;;;;;744461;187;918326;-68
2022/09/30 01:26:28;;;;;;;39.13;24.70;;;;;;;;;;746183;187;916275;-70
2022/09/30 01:29:11;;;;;;;40.43;25.20;;;;;;;;;;741079;187;887972;-67
2022/09/30 01:31:44;;;;;;;40.50;23.93;;;;;;;;;;725339;189;918529;-70
2022/09/30 01:34:10;;;;;;;43.40;25.57;;;;;;;;;;749467;186;917891;-69
2022/09/30 01:36:39;;;;;;;40.83;23.53;;;;;;;;;;743209;186;920484;-69
2022/09/30 01:39:11;;;;;;;39.37;24.00;;;;;;;;;;741774;186;919286;-69
2022/09/30 01:41:41;;;;;;;35.23;22.20;;;;;;;;;;741042;186;919370;-68
2022/09/30 01:44:04;;;;;;;42.07;24.70;;;;;;;;;;747570;187;919270;-69
2022/09/30 01:46:40;;;;;;;52.90;27.50;;;;;;;;;;744316;187;918391;-68
2022/09/30 01:49:07;;;;;;;42.87;26.40;;;;;;;;;;741172;184;917937;-69
2022/09/30 01:51:33;;;;;;;47.67;27.62;;;;;;;;;;739376;187;1019758;-66
2022/09/30 01:54:00;;;;;;;39.20;26.57;;;;;;;;;;745466;187;920208;-68
2022/09/30 01:56:26;;;;;;;42.80;26.47;;;;;;;;;;741853;187;823837;-67
2022/09/30 01:58:53;;;;;;;44.90;25.67;;;;;;;;;;741764;187;918655;-68
2022/09/30 02:01:19;;;;;;;46.13;26.37;;;;;;;;;;741806;187;919200;-66
2022/09/30 02:03:47;;;;;;;39.53;24.57;;;;;;;;;;744495;186;919778;-66
2022/09/30 02:06:12;;;;;;;47.50;29.20;;;;;;;;;;742443;186;915909;-68
2022/09/30 02:08:40;;;;;;;47.80;27.45;;;;;;;;;;740959;187;921653;-68
2022/09/30 02:11:06;;;;;;;41.30;27.07;;;;;;;;;;746943;186;916823;-67
2022/09/30 02:13:33;;;;;;;40.90;25.30;;;;;;;;;;741356;184;917410;-68
2022/09/30 02:15:58;;;;;;;41.80;25.27;;;;;;;;;;740837;187;919158;-67
2022/09/30 02:18:25;;;;;;;41.83;28.00;;;;;;;;;;746243;187;919142;-67
2022/09/30 02:20:51;;;;;;;52.00;27.50;;;;;;;;;;750946;187;919039;-66
2022/09/30 02:23:18;;;;;;;43.87;26.13;;;;;;;;;;744197;186;919466;-70
2022/09/30 02:25:45;;;;;;;46.80;26.70;;;;;;;;;;742566;186;916500;-69
2022/09/30 02:28:10;;;;;;;44.43;27.60;;;;;;;;;;745611;187;920997;-70
2022/09/30 02:30:36;;;;;;;37.45;25.88;;;;;;;;;;741425;184;915767;-69
2022/09/30 02:33:02;;;;;;;39.17;26.40;;;;;;;;;;741440;187;917681;-71
2022/09/30 02:35:29;;;;;;;46.60;27.83;;;;;;;;;;747689;184;923206;-71
2022/09/30 02:37:55;;;;;;;40.20;26.50;;;;;;;;;;739096;186;923533;-69
2022/09/30 02:40:21;;;;;;;45.37;27.50;;;;;;;;;;742950;187;818033;-69
2022/09/30 02:42:48;;;;;;;53.70;30.27;;;;;;;;;;741023;187;919457;-68
2022/09/30 02:45:15;;;;;;;46.90;28.70;;;;;;;;;;751190;185;814000;-68
2022/09/30 02:48:00;;;;;;;46.00;29.40;;;;;;;;;;743364;187;816899;-69
2022/09/30 02:50:30;;;;;;;42.33;28.53;;;;;;;;;;740916;184;916304;-68
2022/09/30 02:53:01;;;;;;;51.80;29.03;;;;;;;;;;742915;187;885456;-68
2022/09/30 02:55:28;;;;;;;43.00;26.80;;;;;;;;;;741218;187;917927;-69
2022/09/30 02:57:59;;;;;;;46.70;27.60;;;;;;;;;;748194;186;919371;-69
2022/09/30 03:00:25;;;;;;;45.33;25.73;;;;;;;;;;744103;187;910221;-69
2022/09/30 03:02:51;;;;;;;39.30;27.10;;;;;;;;;;739732;185;918756;-69
2022/09/30 03:05:17;;;;;;;48.17;30.10;;;;;;;;;;747537;184;915650;-66
2022/09/30 03:07:43;;;;;;;53.63;29.27;;;;;;;;;;744326;186;876012;-69
2022/09/30 03:10:12;;;;;;;56.70;31.07;;;;;;;;;;745442;186;921179;-68
2022/09/30 03:12:38;;;;;;;46.40;29.53;;;;;;;;;;741798;187;918786;-69
2022/09/30 03:15:06;;;;;;;45.40;29.90;;;;;;;;;;750655;187;831588;-69
2022/09/30 03:17:34;;;;;;;51.80;31.77;;;;;;;;;;744881;187;918186;-68
2022/09/30 03:20:16;;;;;;;52.53;35.40;;;;;;;;;;740577;187;919067;-70
2022/09/30 03:22:46;;;;;;;58.00;33.93;;;;;;;;;;741218;187;919315;-67
2022/09/30 03:25:14;;;;;;;50.97;33.23;;;;;;;;;;740850;187;919467;-67
2022/09/30 03:27:55;;;;;;;63.33;35.80;;;;;;;;;;747702;187;919947;-68
2022/09/30 03:30:21;;;;;;;61.20;36.43;;;;;;;;;;732930;186;918791;-69
2022/09/30 03:32:53;;;;;;;55.30;36.83;;;;;;;;;;740001;187;919319;-71
2022/09/30 03:35:21;;;;;;;55.43;34.57;;;;;;;;;;741067;185;916804;-69
2022/09/30 03:37:50;;;;;;;63.80;37.23;;;;;;;;;;741759;187;919212;-70
2022/09/30 03:40:19;;;;;;;64.23;35.83;;;;;;;;;;745323;186;919078;-70
2022/09/30 03:42:45;;;;;;;60.30;35.43;;;;;;;;;;740859;187;919224;-68
2022/09/30 03:45:11;;;;;;;63.40;35.57;;;;;;;;;;742381;187;942035;-68
2022/09/30 03:47:37;;;;;;;71.60;36.83;;;;;;;;;;747982;187;919344;-69
2022/09/30 03:50:03;;;;;;;60.77;36.23;;;;;;;;;;742359;186;940304;-67
2022/09/30 03:52:29;;;;;;;55.57;33.63;;;;;;;;;;739382;187;918962;-68
2022/09/30 03:54:56;;;;;;;55.67;33.77;;;;;;;;;;742947;185;919701;-68
2022/09/30 03:57:21;;;;;;;54.63;33.07;;;;;;;;;;748930;186;920395;-68
2022/09/30 03:59:47;;;;;;;58.80;32.67;;;;;;;;;;742515;187;920812;-68
2022/09/30 04:02:13;;;;;;;57.40;33.70;;;;;;;;;;743488;186;919090;-69
2022/09/30 04:04:39;;;;;;;56.77;33.20;;;;;;;;;;747737;187;919624;-70
2022/09/30 04:07:04;;;;;;;49.80;32.03;;;;;;;;;;744798;187;914603;-67
2022/09/30 04:09:30;;;;;;;52.30;30.97;;;;;;;;;;743009;187;919419;-67
2022/09/30 04:11:56;;;;;;;51.90;31.63;;;;;;;;;;747731;187;817779;-67
2022/09/30 04:14:22;;;;;;;54.03;31.37;;;;;;;;;;741830;184;917866;-69
2022/09/30 04:16:48;;;;;;;50.70;33.23;;;;;;;;;;741969;187;921500;-70
2022/09/30 04:19:13;;;;;;;54.73;29.67;;;;;;;;;;743224;187;918760;-67
2022/09/30 04:21:39;;;;;;;49.70;32.40;;;;;;;;;;745842;186;884222;-67
2022/09/30 04:24:05;;;;;;;42.80;27.73;;;;;;;;;;745088;185;842588;-66
2022/09/30 04:26:31;;;;;;;43.90;29.40;;;;;;;;;;741716;187;918641;-67
2022/09/30 04:28:57;;;;;;;43.37;30.30;;;;;;;;;;748238;187;918970;-67
2022/09/30 04:31:23;;;;;;;47.83;29.00;;;;;;;;;;743615;187;916920;-69
2022/09/30 04:33:49;;;;;;;48.22;27.55;;;;;;;;;;742642;185;932319;-69
2022/09/30 04:36:15;;;;;;;46.60;28.00;;;;;;;;;;746235;186;919137;-71
2022/09/30 04:38:41;;;;;;;45.97;27.77;;;;;;;;;;741758;186;919996;-67
2022/09/30 04:41:06;;;;;;;47.67;28.03;;;;;;;;;;741873;186;920824;-69
2022/09/30 04:43:33;;;;;;;43.20;26.83;;;;;;;;;;744854;187;920327;-71
2022/09/30 04:45:58;;;;;;;43.23;27.70;;;;;;;;;;741675;184;914853;-68
2022/09/30 04:48:24;;;;;;;37.30;25.17;;;;;;;;;;743533;187;821184;-69
2022/09/30 04:50:50;;;;;;;51.87;34.60;;;;;;;;;;743524;186;919033;-73
2022/09/30 04:53:16;;;;;;;55.80;34.00;;;;;;;;;;748621;187;920350;-70
2022/09/30 04:55:41;;;;;;;54.87;30.27;;;;;;;;;;744370;186;901578;-69
2022/09/30 04:58:07;;;;;;;67.05;36.13;;;;;;;;;;742900;185;918279;-68
2022/09/30 05:00:33;;;;;;;60.50;40.47;;;;;;;;;;748758;187;816895;-69
2022/09/30 05:02:59;;;;;;;50.30;33.70;;;;;;;;;;740844;185;919360;-71
2022/09/30 05:05:25;;;;;;;50.40;36.60;;;;;;;;;;741705;186;916959;-67
2022/09/30 05:07:51;;;;;;;48.60;31.57;;;;;;;;;;749120;184;912238;-67
2022/09/30 05:10:17;;;;;;;51.30;30.60;;;;;;;;;;744385;186;916956;-68
2022/09/30 05:12:44;;;;;;;50.70;30.50;;;;;;;;;;742871;185;919459;-68
2022/09/30 05:15:09;;;;;;;44.57;30.00;;;;;;;;;;741979;187;919272;-68
2022/09/30 05:17:34;;;;;;;49.63;31.07;;;;;;;;;;744470;185;899933;-68
2022/09/30 05:20:00;;;;;;;46.13;29.90;;;;;;;;;;743405;186;919087;-68
2022/09/30 05:22:26;;;;;;;42.17;27.77;;;;;;;;;;740724;185;935463;-70
2022/09/30 05:24:52;;;;;;;44.20;29.27;;;;;;;;;;747678;185;924323;-71
2022/09/30 05:27:18;;;;;;;39.57;28.10;;;;;;;;;;741641;187;915491;-68
2022/09/30 05:29:44;;;;;;;40.93;26.77;;;;;;;;;;740909;186;918259;-68
2022/09/30 05:32:10;;;;;;;44.67;28.30;;;;;;;;;;748198;187;884274;-68
2022/09/30 05:34:37;;;;;;;44.13;28.17;;;;;;;;;;744630;187;918399;-68
2022/09/30 05:37:01;;;;;;;61.57;38.63;;;;;;;;;;743599;186;917882;-70
2022/09/30 05:39:28;;;;;;;49.08;29.83;;;;;;;;;;744557;186;919111;-69
2022/09/30 05:41:53;;;;;;;49.27;30.10;;;;;;;;;;749773;186;883386;-71
2022/09/30 05:44:20;;;;;;;49.73;28.73;;;;;;;;;;743151;186;918778;-67
2022/09/30 05:46:46;;;;;;;49.53;29.67;;;;;;;;;;741488;185;868374;-68
2022/09/30 05:49:11;;;;;;;60.37;37.63;;;;;;;;;;746857;187;916750;-68
2022/09/30 05:51:37;;;;;;;73.40;43.10;;;;;;;;;;740929;186;920601;-71
2022/09/30 05:54:03;;;;;;;59.90;40.50;;;;;;;;;;742976;187;815523;-68
2022/09/30 05:56:28;;;;;;;50.93;31.00;;;;;;;;;;748432;186;817004;-71
2022/09/30 05:58:54;;;;;;;39.20;25.97;;;;;;;;;;743134;186;918843;-69
2022/09/30 06:01:20;;;;;;;42.30;27.07;;;;;;;;;;742075;187;919344;-70
2022/09/30 06:03:47;;;;;;;45.00;26.60;;;;;;;;;;748990;186;927132;-69
2022/09/30 06:06:12;;;;;;;44.60;28.80;;;;;;;;;;742645;187;816731;-69
2022/09/30 06:08:39;;;;;;;42.70;26.80;;;;;;;;;;739671;187;930246;-69
2022/09/30 06:11:10;;;;;;;39.33;26.52;;;;;;;;;;742033;185;921483;-66
2022/09/30 06:13:33;;;;;;;42.60;27.83;;;;;;;;;;744842;187;915213;-66
2022/09/30 06:15:59;;;;;;;44.93;31.20;;;;;;;;;;740489;187;918757;-68
2022/09/30 06:18:25;;;;;;;39.43;27.10;;;;;;;;;;742867;185;918462;-72
2022/09/30 06:20:51;;;;;;;37.67;26.50;;;;;;;;;;749743;186;818409;-70
2022/09/30 06:23:16;;;;;;;41.30;26.53;;;;;;;;;;745503;185;917284;-67
2022/09/30 06:25:43;;;;;;;47.45;26.45;;;;;;;;;;746625;185;815783;-75
2022/09/30 06:28:08;;;;;;;37.88;26.17;;;;;;;;;;746109;186;819574;-72
2022/09/30 06:30:34;;;;;;;41.90;27.63;;;;;;;;;;748463;185;918332;-74
2022/09/30 06:33:00;;;;;;;36.70;27.00;;;;;;;;;;745145;184;914375;-68
2022/09/30 06:35:27;;;;;;;40.77;28.37;;;;;;;;;;742904;187;904398;-68
2022/09/30 06:37:52;;;;;;;39.67;27.40;;;;;;;;;;747062;187;919515;-74
2022/09/30 06:40:19;;;;;;;44.67;27.10;;;;;;;;;;741377;187;917785;-74
2022/09/30 06:42:43;;;;;;;40.93;29.37;;;;;;;;;;742649;186;919031;-68
2022/09/30 06:45:10;;;;;;;41.63;25.00;;;;;;;;;;748020;186;816734;-74
2022/09/30 06:47:35;;;;;;;42.10;28.50;;;;;;;;;;744673;187;919328;-75
2022/09/30 06:50:01;;;;;;;45.43;27.13;;;;;;;;;;744071;187;918838;-67
2022/09/30 06:52:27;;;;;;;42.67;28.13;;;;;;;;;;745223;186;919521;-67
2022/09/30 06:54:55;;;;;;;37.23;26.43;;;;;;;;;;742028;187;919262;-74
2022/09/30 06:57:21;;;;;;;37.43;24.67;;;;;;;;;;743773;186;920223;-74
2022/09/30 06:59:44;;;;;;;40.23;27.10;;;;;;;;;;739784;187;921995;-73
2022/09/30 07:02:11;;;;;;;44.00;27.80;;;;;;;;;;747941;185;918712;-74
2022/09/30 07:04:36;;;;;;;45.00;27.90;;;;;;;;;;741645;185;918160;-68
2022/09/30 07:07:02;;;;;;;45.87;30.13;;;;;;;;;;740703;186;915437;-74
2022/09/30 07:09:28;;;;;;;227.10;85.60;;;;;;;;;;749397;187;817113;-68
2022/09/30 07:11:54;;;;;;;48.40;29.83;;;;;;;;;;745468;187;814057;-73
2022/09/30 07:14:22;;;;;;;46.50;29.17;;;;;;;;;;742706;187;916277;-67
2022/09/30 07:16:46;;;;;;;43.50;28.83;;;;;;;;;;748119;186;810982;-73
2022/09/30 07:19:13;;;;;;;40.57;27.43;;;;;;;;;;741317;184;919568;-75
2022/09/30 07:21:38;;;;;;;45.87;29.33;;;;;;;;;;742855;187;918896;-76
2022/09/30 07:24:04;;;;;;;43.30;29.70;;;;;;;;;;742457;187;920762;-75
2022/09/30 07:26:30;;;;;;;43.40;28.55;;;;;;;;;;745974;186;918794;-67
2022/09/30 07:28:56;;;;;;;40.47;27.00;;;;;;;;;;744344;186;816559;-67
2022/09/30 07:31:23;;;;;;;43.60;25.67;;;;;;;;;;742551;186;919893;-67
2022/09/30 07:33:50;;;;;;;41.87;26.30;;;;;;;;;;749595;187;817190;-76
2022/09/30 07:36:17;;;;;;;49.40;29.20;;;;;;;;;;745595;186;916831;-67
2022/09/30 07:38:42;;;;;;;43.70;27.10;;;;;;;;;;744212;185;925472;-68
2022/09/30 07:41:08;;;;;;;47.97;26.13;;;;;;;;;;748510;186;821105;-76
2022/09/30 07:43:37;;;;;;;43.05;25.45;;;;;;;;;;747580;185;862675;-68
2022/09/30 07:46:02;;;;;;;44.70;26.37;;;;;;;;;;741784;186;919493;-68
2022/09/30 07:50:59;;;;;;;46.60;28.40;;;;;;;;;;746419;187;943294;-69
2022/09/30 07:53:25;;;;;;;47.60;27.67;;;;;;;;;;743094;185;922729;-76
2022/09/30 07:55:51;;;;;;;46.87;28.00;;;;;;;;;;743464;185;916407;-76
2022/09/30 07:58:18;;;;;;;50.35;28.08;;;;;;;;;;745051;187;917471;-74
2022/09/30 08:00:43;;;;;;;41.60;25.73;;;;;;;;;;744374;185;910381;-76
2022/09/30 08:03:09;;;;;;;47.90;29.10;;;;;;;;;;745383;185;809096;-68
2022/09/30 08:05:38;;;;;;;41.80;25.17;;;;;;;;;;743303;186;898520;-76
2022/09/30 08:08:05;;;;;;;52.13;29.30;;;;;;;;;;750717;186;631686;-75
2022/09/30 08:10:30;;;;;;;41.80;26.37;;;;;;;;;;741190;187;919043;-76
2022/09/30 08:12:56;;;;;;;50.10;29.40;;;;;;;;;;746170;186;714685;-75
2022/09/30 08:15:21;;;;;;;41.17;23.70;;;;;;;;;;752387;186;643593;-67
2022/09/30 08:17:47;;;;;;;44.10;26.70;;;;;;;;;;749317;187;632814;-76
2022/09/30 08:20:13;;;;;;;45.10;26.93;;;;;;;;;;749594;184;629057;-75
2022/09/30 08:22:39;;;;;;;44.83;26.70;;;;;;;;;;745963;186;781045;-66
2022/09/30 08:25:05;;;;;;;48.67;28.37;;;;;;;;;;745794;187;920726;-76
2022/09/30 08:27:31;;;;;;;44.77;27.87;;;;;;;;;;741879;187;822046;-66
2022/09/30 08:29:57;;;;;;;44.27;26.80;;;;;;;;;;744246;186;910237;-66
2022/09/30 08:32:23;;;;;;;47.20;28.50;;;;;;;;;;750005;187;773044;-74
2022/09/30 08:34:49;;;;;;;48.57;27.70;;;;;;;;;;745819;186;913968;-75
2022/09/30 08:37:15;;;;;;;45.10;30.50;;;;;;;;;;741819;187;817106;-74
2022/09/30 08:39:42;;;;;;;50.13;28.70;;;;;;;;;;746996;187;918879;-76
2022/09/30 08:42:09;;;;;;;48.20;29.90;;;;;;;;;;746069;184;902674;-67
2022/09/30 08:44:35;;;;;;;49.97;34.10;;;;;;;;;;744074;185;922100;-67
2022/09/30 08:47:02;;;;;;;41.30;28.58;;;;;;;;;;743281;186;873892;-66
2022/09/30 08:49:43;;;;;;;42.33;26.70;;;;;;;;;;747472;186;920152;-76
2022/09/30 08:52:08;;;;;;;49.73;27.07;;;;;;;;;;749454;184;855608;-77
2022/09/30 08:54:34;;;;;;;117.23;48.70;;;;;;;;;;742548;186;919528;-68
2022/09/30 08:57:00;;;;;;;69.65;34.08;;;;;;;;;;740396;187;919771;-76
2022/09/30 08:59:29;;;;;;;40.70;26.00;;;;;;;;;;748510;187;918100;-67
2022/09/30 09:01:55;;;;;;;40.67;26.20;;;;;;;;;;743806;187;919073;-68
2022/09/30 09:04:21;;;;;;;39.00;23.77;;;;;;;;;;743956;187;919660;-76
2022/09/30 09:06:49;;;;;;;41.92;24.42;;;;;;;;;;745560;187;919626;-74
2022/09/30 09:09:14;;;;;;;35.90;22.97;;;;;;;;;;743577;188;917225;-76
2022/09/30 09:11:40;;;;;;;35.07;22.37;;;;;;;;;;737370;188;919457;-72
2022/09/30 09:14:06;;;;;;;40.70;24.90;;;;;;;;;;740124;186;921031;-74
2022/09/30 09:16:34;;;;;;;39.20;25.30;;;;;;;;;;748076;186;817367;-75
2022/09/30 09:19:02;;;;;;;34.07;21.60;;;;;;;;;;742358;187;917453;-68
2022/09/30 09:21:28;;;;;;;39.43;24.07;;;;;;;;;;741700;187;928521;-72
2022/09/30 09:23:54;;;;;;;40.37;23.23;;;;;;;;;;747931;187;914403;-67
2022/09/30 09:26:20;;;;;;;40.08;24.37;;;;;;;;;;740041;186;916741;-74
2022/09/30 09:28:52;;;;;;;34.93;22.90;;;;;;;;;;740245;185;919151;-68
2022/09/30 09:31:18;;;;;;;39.30;23.40;;;;;;;;;;740988;185;919099;-75
2022/09/30 09:33:46;;;;;;;35.23;23.97;;;;;;;;;;750662;184;793370;-67
2022/09/30 09:36:13;;;;;;;38.60;25.20;;;;;;;;;;743554;186;852466;-68
2022/09/30 09:38:45;;;;;;;37.35;24.50;;;;;;;;;;740043;187;919729;-74
2022/09/30 09:41:11;;;;;;;33.33;23.27;;;;;;;;;;743537;187;922479;-67
2022/09/30 09:43:44;;;;;;;42.97;22.63;;;;;;;;;;747855;187;915596;-72
2022/09/30 09:46:10;;;;;;;50.77;28.00;;;;;;;;;;740898;187;915592;-68
2022/09/30 09:48:36;;;;;;;53.13;29.20;;;;;;;;;;739523;187;919227;-67
2022/09/30 09:51:02;;;;;;;44.20;24.53;;;;;;;;;;744096;185;904117;-66
2022/09/30 09:53:42;;;;;;;39.30;21.93;;;;;;;;;;748393;186;869339;-73
2022/09/30 09:56:17;;;;;;;30.83;20.67;;;;;;;;;;752210;187;897562;-68
2022/09/30 09:58:36;;;;;;;38.07;21.80;;;;;;;;;;740952;186;918948;-75
2022/09/30 10:01:10;;;;;;;31.10;20.07;;;;;;;;;;741589;186;918331;-68
2022/09/30 10:03:34;;;;;;;33.70;22.83;;;;;;;;;;747433;187;920463;-68
2022/09/30 10:06:03;;;;;;;34.37;22.13;;;;;;;;;;744444;187;901127;-68
2022/09/30 10:08:30;;;;;;;37.00;21.60;;;;;;;;;;743088;187;818348;-68
2022/09/30 10:10:58;;;;;;;29.13;21.00;;;;;;;;;;744510;186;817022;-68
2022/09/30 10:13:24;;;;;;;34.87;19.17;;;;;;;;;;745954;187;813484;-69
2022/09/30 10:15:51;;;;;;;31.87;19.30;;;;;;;;;;746294;187;818001;-74
2022/09/30 10:18:17;;;;;;;32.97;19.85;;;;;;;;;;742922;186;920885;-68
2022/09/30 10:20:43;;;;;;;27.62;18.55;;;;;;;;;;745799;186;816391;-74
2022/09/30 10:23:10;;;;;;;31.93;19.83;;;;;;;;;;744334;188;817299;-75
2022/09/30 10:25:36;;;;;;;30.30;19.60;;;;;;;;;;739675;187;917488;-75
2022/09/30 10:28:02;;;;;;;36.60;21.37;;;;;;;;;;743948;186;815169;-68
2022/09/30 10:30:33;;;;;;;28.10;18.70;;;;;;;;;;748279;186;921037;-75
2022/09/30 10:33:02;;;;;;;29.77;20.00;;;;;;;;;;741608;187;918984;-75
2022/09/30 10:35:25;;;;;;;28.07;18.20;;;;;;;;;;742231;187;909994;-68
2022/09/30 10:37:52;;;;;;;25.60;18.67;;;;;;;;;;743620;186;935132;-68
2022/09/30 10:40:18;;;;;;;25.90;17.83;;;;;;;;;;746793;186;882750;-77
2022/09/30 10:42:43;;;;;;;31.23;19.70;;;;;;;;;;740952;187;862637;-76
2022/09/30 10:45:15;;;;;;;28.07;19.63;;;;;;;;;;743112;186;916596;-68
2022/09/30 10:47:42;;;;;;;27.93;17.83;;;;;;;;;;745438;187;920205;-68
2022/09/30 10:50:08;;;;;;;33.30;16.93;;;;;;;;;;738807;186;919034;-69
2022/09/30 10:52:34;;;;;;;28.37;17.63;;;;;;;;;;743597;186;818164;-75
2022/09/30 10:55:00;;;;;;;29.33;18.80;;;;;;;;;;743557;185;788268;-74
2022/09/30 10:57:25;;;;;;;32.10;23.05;;;;;;;;;;744920;185;932431;-77
2022/09/30 10:59:52;;;;;;;27.20;19.50;;;;;;;;;;743656;186;920664;-81
2022/09/30 11:02:18;;;;;;;30.47;20.63;;;;;;;;;;741498;187;816357;-68
2022/09/30 11:04:45;;;;;;;30.95;19.60;;;;;;;;;;747045;185;819013;-77
2022/09/30 11:07:15;;;;;;;30.33;19.67;;;;;;;;;;747034;184;626214;-77
2022/09/30 11:09:41;;;;;;;33.05;21.42;;;;;;;;;;744577;186;828701;-76
2022/09/30 11:12:08;;;;;;;30.30;20.67;;;;;;;;;;744071;186;901790;-76
2022/09/30 11:14:35;;;;;;;31.10;20.23;;;;;;;;;;746014;188;624497;-74
2022/09/30 11:17:19;;;;;;;30.10;20.40;;;;;;;;;;738968;187;919536;-66
2022/09/30 11:19:47;;;;;;;32.17;22.13;;;;;;;;;;742397;186;916307;-66
2022/09/30 11:22:18;;;;;;;29.40;20.13;;;;;;;;;;740552;187;910656;-66
2022/09/30 11:24:44;;;;;;;28.40;18.27;;;;;;;;;;745232;186;712337;-72
2022/09/30 11:27:11;;;;;;;22.93;15.70;;;;;;;;;;743864;185;618525;-66
2022/09/30 11:29:38;;;;;;;23.70;16.40;;;;;;;;;;747994;185;617097;-73
2022/09/30 11:32:09;;;;;;;18.93;14.40;;;;;;;;;;747212;186;629341;-66
2022/09/30 11:34:41;;;;;;;23.33;14.10;;;;;;;;;;746460;186;772076;-66
2022/09/30 11:37:26;;;;;;;26.93;16.07;;;;;;;;;;745297;183;752227;-71
2022/09/30 11:40:07;;;;;;;23.20;16.00;;;;;;;;;;750158;185;922409;-71
2022/09/30 11:42:49;;;;;;;24.80;14.60;;;;;;;;;;750871;186;621661;-66
2022/09/30 11:45:21;;;;;;;25.67;16.77;;;;;;;;;;750469;185;634217;-71
2022/09/30 11:48:02;;;;;;;25.07;14.70;;;;;;;;;;743230;187;881573;-68
2022/09/30 11:50:38;;;;;;;26.70;15.87;;;;;;;;;;741277;186;647749;-70
2022/09/30 11:53:07;;;;;;;24.13;14.30;;;;;;;;;;744044;185;617175;-65
2022/09/30 11:55:34;;;;;;;19.43;13.23;;;;;;;;;;743805;186;680782;-66
2022/09/30 11:58:03;;;;;;;20.73;15.03;;;;;;;;;;749379;185;618900;-65
2022/09/30 12:00:29;;;;;;;23.37;15.23;;;;;;;;;;750881;185;623577;-69
2022/09/30 12:02:56;;;;;;;23.03;16.40;;;;;;;;;;744974;186;614409;-66
2022/09/30 12:05:25;;;;;;;26.97;17.30;;;;;;;;;;746184;187;636228;-69
2022/09/30 12:07:57;;;;;;;23.00;17.00;;;;;;;;;;735267;190;634876;-69
2022/09/30 12:10:24;;;;;;;24.37;16.47;;;;;;;;;;746254;186;623830;-65
2022/09/30 12:12:50;;;;;;;23.70;15.73;;;;;;;;;;747047;186;618259;-65
2022/09/30 12:15:16;;;;;;;25.00;17.45;;;;;;;;;;743182;186;917792;-65
2022/09/30 12:17:43;;;;;;;31.47;19.90;;;;;;;;;;749756;185;914906;-69
2022/09/30 12:20:16;;;;;;;23.37;16.83;;;;;;;;;;747469;186;817241;-69
2022/09/30 12:22:41;;;;;;;22.20;16.13;;;;;;;;;;744300;185;918406;-72
2022/09/30 12:25:11;;;;;;;25.83;18.03;;;;;;;;;;744294;186;876347;-70
2022/09/30 12:27:39;;;;;;;29.03;18.73;;;;;;;;;;756396;182;791993;-70
2022/09/30 12:32:43;;;;;;;27.07;18.20;;;;;;;;;;740762;187;917176;-66
2022/09/30 12:35:08;;;;;;;26.97;17.47;;;;;;;;;;743027;187;916009;-66
2022/09/30 12:37:51;;;;;;;24.93;18.13;;;;;;;;;;745766;187;894011;-70
2022/09/30 12:40:35;;;;;;;28.27;18.27;;;;;;;;;;742034;186;942952;-66
2022/09/30 12:43:06;;;;;;;29.10;19.65;;;;;;;;;;734349;187;922254;-70
2022/09/30 12:45:47;;;;;;;25.83;16.53;;;;;;;;;;742080;186;918027;-66
2022/09/30 12:48:14;;;;;;;27.17;18.83;;;;;;;;;;740657;186;1020823;-70
2022/09/30 12:50:39;;;;;;;25.87;19.07;;;;;;;;;;742893;186;819294;-65
2022/09/30 12:53:08;;;;;;;27.85;18.20;;;;;;;;;;741309;185;918355;-69
2022/09/30 12:55:37;;;;;;;25.40;18.53;;;;;;;;;;748518;187;916887;-65
2022/09/30 12:58:04;;;;;;;25.88;17.55;;;;;;;;;;743961;187;828689;-70
2022/09/30 13:00:29;;;;;;;25.40;16.15;;;;;;;;;;742366;187;918563;-69
2022/09/30 13:02:55;;;;;;;23.53;16.37;;;;;;;;;;745694;187;914885;-69
2022/09/30 13:05:42;;;;;;;27.17;17.60;;;;;;;;;;741677;187;918745;-69
2022/09/30 13:08:08;;;;;;;26.90;17.30;;;;;;;;;;746530;187;816642;-70
2022/09/30 13:10:34;;;;;;;22.70;16.70;;;;;;;;;;741158;187;917388;-65
2022/09/30 13:13:05;;;;;;;24.50;15.82;;;;;;;;;;740758;186;825656;-65
2022/09/30 13:15:39;;;;;;;25.37;18.57;;;;;;;;;;746664;186;917778;-69
2022/09/30 13:18:12;;;;;;;32.47;22.63;;;;;;;;;;750686;186;912459;-70
2022/09/30 13:20:42;;;;;;;27.30;18.27;;;;;;;;;;741778;187;916977;-64
2022/09/30 13:23:08;;;;;;;28.50;20.10;;;;;;;;;;744125;186;816672;-62
2022/09/30 13:25:41;;;;;;;62.13;40.43;;;;;;;;;;737593;187;920125;-64
2022/09/30 13:28:19;;;;;;;126.07;55.70;;;;;;;;;;747940;186;918948;-63
2022/09/30 13:30:45;;;;;;;86.50;41.67;;;;;;;;;;754200;185;815744;-66
2022/09/30 13:33:16;;;;;;;37.60;24.83;;;;;;;;;;744447;185;825028;-67
2022/09/30 13:35:50;;;;;;;30.10;22.73;;;;;;;;;;743367;184;931950;-67
2022/09/30 13:38:16;;;;;;;41.70;36.37;;;;;;;;;;741724;186;919085;-63
2022/09/30 13:40:57;;;;;;;30.13;21.40;;;;;;;;;;748652;186;916203;-62
2022/09/30 13:43:28;;;;;;;54.03;48.10;;;;;;;;;;746679;187;916692;-64
2022/09/30 13:45:54;;;;;;;32.87;23.57;;;;;;;;;;742632;186;913508;-64
2022/09/30 13:48:20;;;;;;;46.93;33.63;;;;;;;;;;742505;187;917889;-67
2022/09/30 13:50:49;;;;;;;29.90;20.80;;;;;;;;;;743820;184;918506;-64
2022/09/30 13:53:14;;;;;;;22.97;18.57;;;;;;;;;;735080;188;917729;-64
2022/09/30 13:55:44;;;;;;;25.80;19.40;;;;;;;;;;745211;186;811164;-67
2022/09/30 13:58:26;;;;;;;27.90;18.93;;;;;;;;;;743464;186;781996;-63
2022/09/30 14:00:55;;;;;;;31.57;22.40;;;;;;;;;;744296;186;918356;-63
2022/09/30 14:03:25;;;;;;;30.77;19.10;;;;;;;;;;747624;186;819493;-67
2022/09/30 14:05:52;;;;;;;25.50;17.23;;;;;;;;;;742886;186;920599;-67
2022/09/30 14:08:30;;;;;;;27.30;17.77;;;;;;;;;;742591;185;824710;-63
2022/09/30 14:10:58;;;;;;;24.80;17.00;;;;;;;;;;741007;187;919161;-68